Vornesvaering — LK5647 — position and weather

sailwx.info

Track history (hours):
 
Tides and Currents Weather Stations Pressure Air Temp Water Temp Dewpoint Dewpoint Depression Visibility Wind Speed Wind Dir Waves Ship Positions

Vornesvaering

Last reported at 2017-Nov-16 09:05 UTC. Time now 2017-Nov-24 04:08 UTC.
Position N 70°21' E 031°33'.

Length 15 m.

Type: Fishing. MMSI: 257518600.

Date/timePositionNaut miles runAvg speedWind from/ knotsBaromVisibWave heightAir tempDewpointWater temp
2017-Nov-16 09:05N 70°21' E 031°33'0 1.4
2017-Nov-16 09:00N 70°21' E 031°33'1 1.4
2017-Nov-16 08:30N 70°20' E 031°33'1 1.1
2017-Nov-16 08:01N 70°20' E 031°34'1 1.0
2017-Nov-16 07:29N 70°19' E 031°34'0 0.8
2017-Nov-16 06:59N 70°19' E 031°33'1 1.2
2017-Nov-16 06:30N 70°20' E 031°33'1 1.2
2017-Nov-16 06:00N 70°20' E 031°32'0 1.0
2017-Nov-16 05:30N 70°21' E 031°31'0 0.8
2017-Nov-16 04:59N 70°20' E 031°30'2 3.9
2017-Nov-16 04:30N 70°19' E 031°28'0 0.6
2017-Nov-16 04:00N 70°19' E 031°28'0 0.7
2017-Nov-16 03:29N 70°19' E 031°27'0 0.7
2017-Nov-16 03:00N 70°19' E 031°26'0 0.8
2017-Nov-16 02:30N 70°20' E 031°26'0 0.7
2017-Nov-16 02:00N 70°20' E 031°26'0 0.7
2017-Nov-16 01:30N 70°20' E 031°25'0 0.7
2017-Nov-16 01:00N 70°21' E 031°25'0 0.7
2017-Nov-16 00:30N 70°21' E 031°25'0 0.8
2017-Nov-16 00:00N 70°21' E 031°25'2 4.3
2017-Nov-15 23:30N 70°23' E 031°21'3 5.4
2017-Nov-15 23:00N 70°25' E 031°16'1 1.5
2017-Nov-15 22:30N 70°24' E 031°15'1 1.7
2017-Nov-15 22:00N 70°24' E 031°14'1 1.7
2017-Nov-15 21:30N 70°23' E 031°13'1 1.9
2017-Nov-15 20:59N 70°22' E 031°12'1 1.3
2017-Nov-15 20:30N 70°21' E 031°12'1 1.1
2017-Nov-15 19:59N 70°21' E 031°13'2 3.7
2017-Nov-15 19:30N 70°20' E 031°18'4 7.8
2017-Nov-15 19:00N 70°19' E 031°29'3 5.2
2017-Nov-15 18:30N 70°19' E 031°37'3 5.5
2017-Nov-15 18:00N 70°21' E 031°33'2 3.3
2017-Nov-15 17:30N 70°20' E 031°34'1 2.6
2017-Nov-15 16:59N 70°20' E 031°31'1 1.9
2017-Nov-15 16:30N 70°20' E 031°31'0 0.4
2017-Nov-15 15:58N 70°20' E 031°31'0 0.3
2017-Nov-15 15:30N 70°20' E 031°30'0 0.7
2017-Nov-15 15:00N 70°19' E 031°31'1 1.3
2017-Nov-15 14:30N 70°19' E 031°32'1 1.3
2017-Nov-15 13:59N 70°19' E 031°34'0 0.9
2017-Nov-15 13:30N 70°19' E 031°35'0 0.6
2017-Nov-15 13:00N 70°19' E 031°36'0 0.8
2017-Nov-15 12:30N 70°19' E 031°37'0 0.7
2017-Nov-15 12:00N 70°19' E 031°38'0 0.8
2017-Nov-15 11:29N 70°19' E 031°37'0 0.9
2017-Nov-15 11:00N 70°20' E 031°36'0 0.9
2017-Nov-15 10:30N 70°20' E 031°35'1 1.2
2017-Nov-15 10:00N 70°20' E 031°34'1 1.2
2017-Nov-15 09:29N 70°21' E 031°33'1 1.0
2017-Nov-15 09:00N 70°21' E 031°32'0 0.9
2017-Nov-15 08:30N 70°22' E 031°31'1 1.0
2017-Nov-15 08:00N 70°22' E 031°31'0 1.0
2017-Nov-15 07:30N 70°22' E 031°32'0 0.8
2017-Nov-15 07:00N 70°23' E 031°32'1 1.1
2017-Nov-15 06:30N 70°23' E 031°31'1 1.3
2017-Nov-15 05:59N 70°24' E 031°30'1 1.7
2017-Nov-15 05:30N 70°24' E 031°29'0 0.7
2017-Nov-15 05:00N 70°24' E 031°28'4 7.6
2017-Nov-15 04:30N 70°23' E 031°17'3 6.2
2017-Nov-15 04:00N 70°23' E 031°08'1 1.0
2017-Nov-15 03:30N 70°23' E 031°07'0 0.0
2017-Nov-15 03:00N 70°23' E 031°07'0 0.0
2017-Nov-15 02:30N 70°23' E 031°07'0 0.0
2017-Nov-15 02:00N 70°23' E 031°07'0 0.0
2017-Nov-15 01:30N 70°23' E 031°07'0 0.0
2017-Nov-15 01:00N 70°23' E 031°07'0 0.0
2017-Nov-15 00:30N 70°23' E 031°07'0 0.0
2017-Nov-15 00:00N 70°23' E 031°07'0 0.0
2017-Nov-14 23:30N 70°23' E 031°07'0 0.0
2017-Nov-14 23:00N 70°23' E 031°07'0 0.0
2017-Nov-14 22:30N 70°23' E 031°07'0 0.0
2017-Nov-14 22:00N 70°23' E 031°07'0 0.0
2017-Nov-14 21:30N 70°23' E 031°07'0 0.1
2017-Nov-14 21:00N 70°23' E 031°06'4 7.2
2017-Nov-14 20:30N 70°25' E 031°14'2 3.9
2017-Nov-14 20:00N 70°23' E 031°14'3 4.9
2017-Nov-14 19:30N 70°21' E 031°13'3 5.4
2017-Nov-14 19:00N 70°23' E 031°08'1 1.0
2017-Nov-14 18:29N 70°22' E 031°07'0 0.0
2017-Nov-14 18:00N 70°22' E 031°07'0 0.4
2017-Nov-14 17:29N 70°23' E 031°07'0 0.0
2017-Nov-14 16:59N 70°23' E 031°07'1 2.1
2017-Nov-14 16:30N 70°22' E 031°10'4 8.3
2017-Nov-14 15:59N 70°21' E 031°22'3 6.8
2017-Nov-14 15:30N 70°20' E 031°30'3 5.2
2017-Nov-14 15:00N 70°19' E 031°38'3 5.5
2017-Nov-14 14:30N 70°21' E 031°32'2 4.1
2017-Nov-14 13:59N 70°23' E 031°31'2 3.5
2017-Nov-14 13:30N 70°25' E 031°29'3 5.9
2017-Nov-14 13:00N 70°25' E 031°37'5 0.1
2017-Nov-12 14:15N 70°22' E 031°48'2 7.0
2017-Nov-12 14:00N 70°22' E 031°43'4 7.3
2017-Nov-12 13:30N 70°22' E 031°33'4 7.3
2017-Nov-12 13:01N 70°22' E 031°22'4 7.2
2017-Nov-12 12:30N 70°22' E 031°11'1 2.5
2017-Nov-12 11:59N 70°23' E 031°07'0 0.0
2017-Nov-12 11:29N 70°23' E 031°07'0 0.0
2017-Nov-12 10:59N 70°23' E 031°07'0 0.0
2017-Nov-12 10:29N 70°23' E 031°07'0 0.0
2017-Nov-12 09:59N 70°23' E 031°07'0 0.0
2017-Nov-12 09:29N 70°23' E 031°07'0 0.0
2017-Nov-12 08:59N 70°23' E 031°07'0 0.0
2017-Nov-12 08:29N 70°23' E 031°07'0 0.0
2017-Nov-12 07:59N 70°23' E 031°07'0 0.0
2017-Nov-12 07:29N 70°23' E 031°07'0 0.0
2017-Nov-12 06:59N 70°23' E 031°07'0 0.0
2017-Nov-12 06:29N 70°23' E 031°07'0 0.0
2017-Nov-12 05:59N 70°23' E 031°07'0 0.0
2017-Nov-12 05:29N 70°23' E 031°07'0 0.0
2017-Nov-12 04:59N 70°23' E 031°07'0 0.0
2017-Nov-12 04:29N 70°23' E 031°07'0 0.0
2017-Nov-12 03:59N 70°23' E 031°07'0 0.0
2017-Nov-12 03:29N 70°23' E 031°07'0 0.0
2017-Nov-12 02:59N 70°23' E 031°07'0 0.0
2017-Nov-12 02:29N 70°23' E 031°07'0 0.0
2017-Nov-12 01:59N 70°23' E 031°07'0 0.0
2017-Nov-12 01:29N 70°23' E 031°07'0 0.0
2017-Nov-12 00:59N 70°23' E 031°07'0 0.0
2017-Nov-12 00:29N 70°23' E 031°07'0 0.0
2017-Nov-11 23:59N 70°23' E 031°07'0 0.0
2017-Nov-11 23:29N 70°23' E 031°07'0 0.0
2017-Nov-11 22:59N 70°23' E 031°07'0 0.0
2017-Nov-11 22:29N 70°23' E 031°07'0 0.0
2017-Nov-11 21:59N 70°23' E 031°07'0 0.0
2017-Nov-11 21:29N 70°23' E 031°07'2 4.1
2017-Nov-11 21:00N 70°24' E 031°10'4 7.2
2017-Nov-11 20:29N 70°26' E 031°20'3 6.9
2017-Nov-11 20:00N 70°27' E 031°29'3 6.8
2017-Nov-11 19:30N 70°28' E 031°38'7 0.2
2017-Nov-10 16:58N 70°22' E 031°48'4 8.6
2017-Nov-10 16:30N 70°22' E 031°36'4 8.2
2017-Nov-10 16:00N 70°22' E 031°24'4 7.7
2017-Nov-10 15:30N 70°22' E 031°12'2 3.8
2017-Nov-10 15:00N 70°22' E 031°07'0 0.0
2017-Nov-10 14:30N 70°22' E 031°07'0 0.0
2017-Nov-10 14:00N 70°22' E 031°07'0 0.0
2017-Nov-10 13:30N 70°22' E 031°07'0 0.0
2017-Nov-10 13:00N 70°22' E 031°07'0 0.0
2017-Nov-10 12:30N 70°22' E 031°07'0 0.0
2017-Nov-10 12:00N 70°22' E 031°07'0 0.0
2017-Nov-10 11:30N 70°22' E 031°07'0 0.0
2017-Nov-10 11:00N 70°22' E 031°07'0 0.0
2017-Nov-10 10:30N 70°22' E 031°07'0 0.4
2017-Nov-10 09:58N 70°23' E 031°07'0 0.0
2017-Nov-10 09:28N 70°23' E 031°07'0 0.0
2017-Nov-10 08:58N 70°23' E 031°07'0 0.1
2017-Nov-10 08:30N 70°23' E 031°07'0 0.0
2017-Nov-10 08:00N 70°23' E 031°07'0 0.0
2017-Nov-10 07:30N 70°23' E 031°07'0 0.0
2017-Nov-10 07:00N 70°23' E 031°07'0 0.0
2017-Nov-10 06:30N 70°23' E 031°07'0 0.0
2017-Nov-10 06:00N 70°23' E 031°07'0 0.0
2017-Nov-10 05:30N 70°23' E 031°07'0 0.0
2017-Nov-10 05:00N 70°23' E 031°07'0 0.0
2017-Nov-10 04:30N 70°23' E 031°07'0 0.0
2017-Nov-10 04:00N 70°23' E 031°07'0 0.0
2017-Nov-10 03:30N 70°23' E 031°07'0 0.0
2017-Nov-10 03:00N 70°23' E 031°07'0 0.0
2017-Nov-10 02:30N 70°23' E 031°07'0 0.0
2017-Nov-10 02:00N 70°23' E 031°07'0 0.0
2017-Nov-10 01:30N 70°23' E 031°07'0 0.0
2017-Nov-10 01:00N 70°23' E 031°07'0 0.0
2017-Nov-10 00:30N 70°23' E 031°07'0 0.0
2017-Nov-10 00:00N 70°23' E 031°07'0 0.0
2017-Nov-09 23:30N 70°23' E 031°07'0 0.0
2017-Nov-09 23:00N 70°23' E 031°07'1 2.1
2017-Nov-09 22:30N 70°24' E 031°07'4 7.8
2017-Nov-09 22:00N 70°25' E 031°17'4 7.6
2017-Nov-09 21:30N 70°27' E 031°26'4 7.4
2017-Nov-09 21:00N 70°29' E 031°36'6 0.3
2017-Nov-08 23:17N 70°24' E 031°46'3 9.0
2017-Nov-08 23:00N 70°24' E 031°38'4 8.6
2017-Nov-08 22:30N 70°23' E 031°25'4 8.4
2017-Nov-08 22:00N 70°23' E 031°13'2 4.1
2017-Nov-08 21:29N 70°23' E 031°07'0 0.0
2017-Nov-08 20:59N 70°23' E 031°07'0 0.0
2017-Nov-08 20:29N 70°23' E 031°07'0 0.0
2017-Nov-08 19:59N 70°23' E 031°07'0 0.0
2017-Nov-08 19:29N 70°23' E 031°07'0 0.0
2017-Nov-08 18:59N 70°23' E 031°07'0 0.0
2017-Nov-08 18:29N 70°23' E 031°07'0 0.0
2017-Nov-08 17:59N 70°23' E 031°07'0 0.0
2017-Nov-08 17:29N 70°23' E 031°07'0 0.0
2017-Nov-08 16:59N 70°23' E 031°07'0 0.0
2017-Nov-08 16:29N 70°23' E 031°07'0 0.0
2017-Nov-08 15:59N 70°23' E 031°07'0 0.0
2017-Nov-08 15:29N 70°23' E 031°07'0 0.0
2017-Nov-08 14:59N 70°23' E 031°07'0 0.0
2017-Nov-08 14:29N 70°23' E 031°07'0 0.0
2017-Nov-08 13:59N 70°23' E 031°07'0 0.0
2017-Nov-08 13:29N 70°23' E 031°07'0 0.0
2017-Nov-08 12:59N 70°23' E 031°07'0 0.0
2017-Nov-08 12:29N 70°23' E 031°07'0 0.2
2017-Nov-08 12:00N 70°23' E 031°07'0 0.1
2017-Nov-08 11:29N 70°23' E 031°07'0 0.0
2017-Nov-08 10:59N 70°23' E 031°07'0 0.0
2017-Nov-08 10:29N 70°23' E 031°07'0 0.0
2017-Nov-08 09:59N 70°23' E 031°07'0 0.0
2017-Nov-08 09:29N 70°23' E 031°07'0 0.0
2017-Nov-08 08:59N 70°23' E 031°07'0 0.0
2017-Nov-08 08:29N 70°23' E 031°07'0 0.0
2017-Nov-08 07:59N 70°23' E 031°07'0 0.0
2017-Nov-08 07:29N 70°23' E 031°07'0 0.0
2017-Nov-08 06:59N 70°23' E 031°07'0 0.0
2017-Nov-08 06:29N 70°23' E 031°07'0 0.0
2017-Nov-08 05:56N 70°23' E 031°07'0 0.0
2017-Nov-08 05:29N 70°23' E 031°07'0 0.0
2017-Nov-08 04:59N 70°23' E 031°07'0 0.0
2017-Nov-08 04:29N 70°23' E 031°07'0 0.0
2017-Nov-08 03:59N 70°23' E 031°07'0 0.0
2017-Nov-08 03:29N 70°23' E 031°07'0 0.0
2017-Nov-08 02:59N 70°23' E 031°07'0 0.0
2017-Nov-08 02:29N 70°23' E 031°07'0 0.0
2017-Nov-08 01:59N 70°23' E 031°07'0 0.0
2017-Nov-08 01:29N 70°23' E 031°07'0 0.0
2017-Nov-08 00:59N 70°23' E 031°07'0 0.0
2017-Nov-08 00:29N 70°23' E 031°07'0 0.0
2017-Nov-07 23:59N 70°23' E 031°07'0 0.0
2017-Nov-07 23:29N 70°23' E 031°07'0 0.0
2017-Nov-07 22:59N 70°23' E 031°07'0 0.0
2017-Nov-07 22:29N 70°23' E 031°07'0 0.0
2017-Nov-07 21:59N 70°23' E 031°07'0 0.0
2017-Nov-07 21:29N 70°23' E 031°07'0 0.0
2017-Nov-07 20:59N 70°23' E 031°07'0 0.0
2017-Nov-07 20:29N 70°23' E 031°07'0 0.0
2017-Nov-07 19:59N 70°23' E 031°07'0 0.0
2017-Nov-07 19:29N 70°23' E 031°07'0 0.0
2017-Nov-07 18:59N 70°23' E 031°07'0 0.0
2017-Nov-07 18:29N 70°23' E 031°07'0 0.0
2017-Nov-07 17:59N 70°23' E 031°07'0 0.0
2017-Nov-07 17:29N 70°23' E 031°07'0 0.0
2017-Nov-07 16:59N 70°23' E 031°07'0 0.0
2017-Nov-07 16:29N 70°23' E 031°07'0 0.0
2017-Nov-07 15:59N 70°23' E 031°07'0 0.0
2017-Nov-07 15:29N 70°23' E 031°07'0 0.0
2017-Nov-07 14:59N 70°23' E 031°07'0 0.0
2017-Nov-07 14:29N 70°23' E 031°07'0 0.0
2017-Nov-07 13:59N 70°23' E 031°07'0 0.0
2017-Nov-07 13:29N 70°23' E 031°07'0 0.0
2017-Nov-07 12:59N 70°23' E 031°07'0 0.0
2017-Nov-07 12:29N 70°23' E 031°07'0 0.0
2017-Nov-07 11:59N 70°23' E 031°07'0 0.0
2017-Nov-07 11:29N 70°23' E 031°07'0 0.0
2017-Nov-07 10:59N 70°23' E 031°07'0 0.0
2017-Nov-07 10:29N 70°23' E 031°07'0 0.0
2017-Nov-07 09:59N 70°23' E 031°07'0 0.0
2017-Nov-07 09:29N 70°23' E 031°07'0 0.0
2017-Nov-07 08:59N 70°23' E 031°07'0 0.0
2017-Nov-07 08:29N 70°23' E 031°07'0 0.0
2017-Nov-07 07:59N 70°23' E 031°07'0 0.0
2017-Nov-07 07:29N 70°23' E 031°07'0 0.0
2017-Nov-07 06:59N 70°23' E 031°07'0 0.0
2017-Nov-07 06:29N 70°23' E 031°07'0 0.0
2017-Nov-07 05:59N 70°23' E 031°07'0 0.0
2017-Nov-07 05:29N 70°23' E 031°07'0 0.0
2017-Nov-07 04:59N 70°23' E 031°07'0 0.0
2017-Nov-07 04:29N 70°23' E 031°07'0 0.0
2017-Nov-07 03:59N 70°23' E 031°07'0 0.0
2017-Nov-07 03:29N 70°23' E 031°07'0 0.0
2017-Nov-07 02:59N 70°23' E 031°07'0 0.0
2017-Nov-07 02:29N 70°23' E 031°07'0 0.0
2017-Nov-07 01:59N 70°23' E 031°07'0 0.0
2017-Nov-07 01:29N 70°23' E 031°07'0 0.0
2017-Nov-07 00:59N 70°23' E 031°07'0 0.0
2017-Nov-07 00:29N 70°23' E 031°07'0 0.0
2017-Nov-06 23:59N 70°23' E 031°07'0 0.0
2017-Nov-06 23:29N 70°23' E 031°07'0 0.0
2017-Nov-06 22:59N 70°23' E 031°07'0 0.0
2017-Nov-06 22:29N 70°23' E 031°07'0 0.0
2017-Nov-06 21:59N 70°23' E 031°07'0 0.0
2017-Nov-06 21:29N 70°23' E 031°07'0 0.0
2017-Nov-06 20:59N 70°23' E 031°07'0 0.0
2017-Nov-06 20:29N 70°23' E 031°07'  
Track history (hours):
 
Tides and Currents Weather Stations Pressure Air Temp Water Temp Dewpoint Dewpoint Depression Visibility Wind Speed Wind Dir Waves Ship Positions

Vornesvaering

Last reported at 2017-Nov-16 09:05 UTC. Time now 2017-Nov-24 04:08 UTC.
Position N 70°21' E 031°33'.

Length 15 m.

Type: Fishing. MMSI: 257518600.

Date/timePositionNaut miles runAvg speedWind from/ knotsBaromVisibWave heightAir tempDewpointWater temp
2017-Nov-16 09:05N 70°21' E 031°33'0 1.4
2017-Nov-16 09:00N 70°21' E 031°33'1 1.4
2017-Nov-16 08:30N 70°20' E 031°33'1 1.1
2017-Nov-16 08:01N 70°20' E 031°34'1 1.0
2017-Nov-16 07:29N 70°19' E 031°34'0 0.8
2017-Nov-16 06:59N 70°19' E 031°33'1 1.2
2017-Nov-16 06:30N 70°20' E 031°33'1 1.2
2017-Nov-16 06:00N 70°20' E 031°32'0 1.0
2017-Nov-16 05:30N 70°21' E 031°31'0 0.8
2017-Nov-16 04:59N 70°20' E 031°30'2 3.9
2017-Nov-16 04:30N 70°19' E 031°28'0 0.6
2017-Nov-16 04:00N 70°19' E 031°28'0 0.7
2017-Nov-16 03:29N 70°19' E 031°27'0 0.7
2017-Nov-16 03:00N 70°19' E 031°26'0 0.8
2017-Nov-16 02:30N 70°20' E 031°26'0 0.7
2017-Nov-16 02:00N 70°20' E 031°26'0 0.7
2017-Nov-16 01:30N 70°20' E 031°25'0 0.7
2017-Nov-16 01:00N 70°21' E 031°25'0 0.7
2017-Nov-16 00:30N 70°21' E 031°25'0 0.8
2017-Nov-16 00:00N 70°21' E 031°25'2 4.3
2017-Nov-15 23:30N 70°23' E 031°21'3 5.4
2017-Nov-15 23:00N 70°25' E 031°16'1 1.5
2017-Nov-15 22:30N 70°24' E 031°15'1 1.7
2017-Nov-15 22:00N 70°24' E 031°14'1 1.7
2017-Nov-15 21:30N 70°23' E 031°13'1 1.9
2017-Nov-15 20:59N 70°22' E 031°12'1 1.3
2017-Nov-15 20:30N 70°21' E 031°12'1 1.1
2017-Nov-15 19:59N 70°21' E 031°13'2 3.7
2017-Nov-15 19:30N 70°20' E 031°18'4 7.8
2017-Nov-15 19:00N 70°19' E 031°29'3 5.2
2017-Nov-15 18:30N 70°19' E 031°37'3 5.5
2017-Nov-15 18:00N 70°21' E 031°33'2 3.3
2017-Nov-15 17:30N 70°20' E 031°34'1 2.6
2017-Nov-15 16:59N 70°20' E 031°31'1 1.9
2017-Nov-15 16:30N 70°20' E 031°31'0 0.4
2017-Nov-15 15:58N 70°20' E 031°31'0 0.3
2017-Nov-15 15:30N 70°20' E 031°30'0 0.7
2017-Nov-15 15:00N 70°19' E 031°31'1 1.3
2017-Nov-15 14:30N 70°19' E 031°32'1 1.3
2017-Nov-15 13:59N 70°19' E 031°34'0 0.9
2017-Nov-15 13:30N 70°19' E 031°35'0 0.6
2017-Nov-15 13:00N 70°19' E 031°36'0 0.8
2017-Nov-15 12:30N 70°19' E 031°37'0 0.7
2017-Nov-15 12:00N 70°19' E 031°38'0 0.8
2017-Nov-15 11:29N 70°19' E 031°37'0 0.9
2017-Nov-15 11:00N 70°20' E 031°36'0 0.9
2017-Nov-15 10:30N 70°20' E 031°35'1 1.2
2017-Nov-15 10:00N 70°20' E 031°34'1 1.2
2017-Nov-15 09:29N 70°21' E 031°33'1 1.0
2017-Nov-15 09:00N 70°21' E 031°32'0 0.9
2017-Nov-15 08:30N 70°22' E 031°31'1 1.0
2017-Nov-15 08:00N 70°22' E 031°31'0 1.0
2017-Nov-15 07:30N 70°22' E 031°32'0 0.8
2017-Nov-15 07:00N 70°23' E 031°32'1 1.1
2017-Nov-15 06:30N 70°23' E 031°31'1 1.3
2017-Nov-15 05:59N 70°24' E 031°30'1 1.7
2017-Nov-15 05:30N 70°24' E 031°29'0 0.7
2017-Nov-15 05:00N 70°24' E 031°28'4 7.6
2017-Nov-15 04:30N 70°23' E 031°17'3 6.2
2017-Nov-15 04:00N 70°23' E 031°08'1 1.0
2017-Nov-15 03:30N 70°23' E 031°07'0 0.0
2017-Nov-15 03:00N 70°23' E 031°07'0 0.0
2017-Nov-15 02:30N 70°23' E 031°07'0 0.0
2017-Nov-15 02:00N 70°23' E 031°07'0 0.0
2017-Nov-15 01:30N 70°23' E 031°07'0 0.0
2017-Nov-15 01:00N 70°23' E 031°07'0 0.0
2017-Nov-15 00:30N 70°23' E 031°07'0 0.0
2017-Nov-15 00:00N 70°23' E 031°07'0 0.0
2017-Nov-14 23:30N 70°23' E 031°07'0 0.0
2017-Nov-14 23:00N 70°23' E 031°07'0 0.0
2017-Nov-14 22:30N 70°23' E 031°07'0 0.0
2017-Nov-14 22:00N 70°23' E 031°07'0 0.0
2017-Nov-14 21:30N 70°23' E 031°07'0 0.1
2017-Nov-14 21:00N 70°23' E 031°06'4 7.2
2017-Nov-14 20:30N 70°25' E 031°14'2 3.9
2017-Nov-14 20:00N 70°23' E 031°14'3 4.9
2017-Nov-14 19:30N 70°21' E 031°13'3 5.4
2017-Nov-14 19:00N 70°23' E 031°08'1 1.0
2017-Nov-14 18:29N 70°22' E 031°07'0 0.0
2017-Nov-14 18:00N 70°22' E 031°07'0 0.4
2017-Nov-14 17:29N 70°23' E 031°07'0 0.0
2017-Nov-14 16:59N 70°23' E 031°07'1 2.1
2017-Nov-14 16:30N 70°22' E 031°10'4 8.3
2017-Nov-14 15:59N 70°21' E 031°22'3 6.8
2017-Nov-14 15:30N 70°20' E 031°30'3 5.2
2017-Nov-14 15:00N 70°19' E 031°38'3 5.5
2017-Nov-14 14:30N 70°21' E 031°32'2 4.1
2017-Nov-14 13:59N 70°23' E 031°31'2 3.5
2017-Nov-14 13:30N 70°25' E 031°29'3 5.9
2017-Nov-14 13:00N 70°25' E 031°37'5 0.1
2017-Nov-12 14:15N 70°22' E 031°48'2 7.0
2017-Nov-12 14:00N 70°22' E 031°43'4 7.3
2017-Nov-12 13:30N 70°22' E 031°33'4 7.3
2017-Nov-12 13:01N 70°22' E 031°22'4 7.2
2017-Nov-12 12:30N 70°22' E 031°11'1 2.5
2017-Nov-12 11:59N 70°23' E 031°07'0 0.0
2017-Nov-12 11:29N 70°23' E 031°07'0 0.0
2017-Nov-12 10:59N 70°23' E 031°07'0 0.0
2017-Nov-12 10:29N 70°23' E 031°07'0 0.0
2017-Nov-12 09:59N 70°23' E 031°07'0 0.0
2017-Nov-12 09:29N 70°23' E 031°07'0 0.0
2017-Nov-12 08:59N 70°23' E 031°07'0 0.0
2017-Nov-12 08:29N 70°23' E 031°07'0 0.0
2017-Nov-12 07:59N 70°23' E 031°07'0 0.0
2017-Nov-12 07:29N 70°23' E 031°07'0 0.0
2017-Nov-12 06:59N 70°23' E 031°07'0 0.0
2017-Nov-12 06:29N 70°23' E 031°07'0 0.0
2017-Nov-12 05:59N 70°23' E 031°07'0 0.0
2017-Nov-12 05:29N 70°23' E 031°07'0 0.0
2017-Nov-12 04:59N 70°23' E 031°07'0 0.0
2017-Nov-12 04:29N 70°23' E 031°07'0 0.0
2017-Nov-12 03:59N 70°23' E 031°07'0 0.0
2017-Nov-12 03:29N 70°23' E 031°07'0 0.0
2017-Nov-12 02:59N 70°23' E 031°07'0 0.0
2017-Nov-12 02:29N 70°23' E 031°07'0 0.0
2017-Nov-12 01:59N 70°23' E 031°07'0 0.0
2017-Nov-12 01:29N 70°23' E 031°07'0 0.0
2017-Nov-12 00:59N 70°23' E 031°07'0 0.0
2017-Nov-12 00:29N 70°23' E 031°07'0 0.0
2017-Nov-11 23:59N 70°23' E 031°07'0 0.0
2017-Nov-11 23:29N 70°23' E 031°07'0 0.0
2017-Nov-11 22:59N 70°23' E 031°07'0 0.0
2017-Nov-11 22:29N 70°23' E 031°07'0 0.0
2017-Nov-11 21:59N 70°23' E 031°07'0 0.0
2017-Nov-11 21:29N 70°23' E 031°07'2 4.1
2017-Nov-11 21:00N 70°24' E 031°10'4 7.2
2017-Nov-11 20:29N 70°26' E 031°20'3 6.9
2017-Nov-11 20:00N 70°27' E 031°29'3 6.8
2017-Nov-11 19:30N 70°28' E 031°38'7 0.2
2017-Nov-10 16:58N 70°22' E 031°48'4 8.6
2017-Nov-10 16:30N 70°22' E 031°36'4 8.2
2017-Nov-10 16:00N 70°22' E 031°24'4 7.7
2017-Nov-10 15:30N 70°22' E 031°12'2 3.8
2017-Nov-10 15:00N 70°22' E 031°07'0 0.0
2017-Nov-10 14:30N 70°22' E 031°07'0 0.0
2017-Nov-10 14:00N 70°22' E 031°07'0 0.0
2017-Nov-10 13:30N 70°22' E 031°07'0 0.0
2017-Nov-10 13:00N 70°22' E 031°07'0 0.0
2017-Nov-10 12:30N 70°22' E 031°07'0 0.0
2017-Nov-10 12:00N 70°22' E 031°07'0 0.0
2017-Nov-10 11:30N 70°22' E 031°07'0 0.0
2017-Nov-10 11:00N 70°22' E 031°07'0 0.0
2017-Nov-10 10:30N 70°22' E 031°07'0 0.4
2017-Nov-10 09:58N 70°23' E 031°07'0 0.0
2017-Nov-10 09:28N 70°23' E 031°07'0 0.0
2017-Nov-10 08:58N 70°23' E 031°07'0 0.1
2017-Nov-10 08:30N 70°23' E 031°07'0 0.0
2017-Nov-10 08:00N 70°23' E 031°07'0 0.0
2017-Nov-10 07:30N 70°23' E 031°07'0 0.0
2017-Nov-10 07:00N 70°23' E 031°07'0 0.0
2017-Nov-10 06:30N 70°23' E 031°07'0 0.0
2017-Nov-10 06:00N 70°23' E 031°07'0 0.0
2017-Nov-10 05:30N 70°23' E 031°07'0 0.0
2017-Nov-10 05:00N 70°23' E 031°07'0 0.0
2017-Nov-10 04:30N 70°23' E 031°07'0 0.0
2017-Nov-10 04:00N 70°23' E 031°07'0 0.0
2017-Nov-10 03:30N 70°23' E 031°07'0 0.0
2017-Nov-10 03:00N 70°23' E 031°07'0 0.0
2017-Nov-10 02:30N 70°23' E 031°07'0 0.0
2017-Nov-10 02:00N 70°23' E 031°07'0 0.0
2017-Nov-10 01:30N 70°23' E 031°07'0 0.0
2017-Nov-10 01:00N 70°23' E 031°07'0 0.0
2017-Nov-10 00:30N 70°23' E 031°07'0 0.0
2017-Nov-10 00:00N 70°23' E 031°07'0 0.0
2017-Nov-09 23:30N 70°23' E 031°07'0 0.0
2017-Nov-09 23:00N 70°23' E 031°07'1 2.1
2017-Nov-09 22:30N 70°24' E 031°07'4 7.8
2017-Nov-09 22:00N 70°25' E 031°17'4 7.6
2017-Nov-09 21:30N 70°27' E 031°26'4 7.4
2017-Nov-09 21:00N 70°29' E 031°36'6 0.3
2017-Nov-08 23:17N 70°24' E 031°46'3 9.0
2017-Nov-08 23:00N 70°24' E 031°38'4 8.6
2017-Nov-08 22:30N 70°23' E 031°25'4 8.4
2017-Nov-08 22:00N 70°23' E 031°13'2 4.1
2017-Nov-08 21:29N 70°23' E 031°07'0 0.0
2017-Nov-08 20:59N 70°23' E 031°07'0 0.0
2017-Nov-08 20:29N 70°23' E 031°07'0 0.0
2017-Nov-08 19:59N 70°23' E 031°07'0 0.0
2017-Nov-08 19:29N 70°23' E 031°07'0 0.0
2017-Nov-08 18:59N 70°23' E 031°07'0 0.0
2017-Nov-08 18:29N 70°23' E 031°07'0 0.0
2017-Nov-08 17:59N 70°23' E 031°07'0 0.0
2017-Nov-08 17:29N 70°23' E 031°07'0 0.0
2017-Nov-08 16:59N 70°23' E 031°07'0 0.0
2017-Nov-08 16:29N 70°23' E 031°07'0 0.0
2017-Nov-08 15:59N 70°23' E 031°07'0 0.0
2017-Nov-08 15:29N 70°23' E 031°07'0 0.0
2017-Nov-08 14:59N 70°23' E 031°07'0 0.0
2017-Nov-08 14:29N 70°23' E 031°07'0 0.0
2017-Nov-08 13:59N 70°23' E 031°07'0 0.0
2017-Nov-08 13:29N 70°23' E 031°07'0 0.0
2017-Nov-08 12:59N 70°23' E 031°07'0 0.0
2017-Nov-08 12:29N 70°23' E 031°07'0 0.2
2017-Nov-08 12:00N 70°23' E 031°07'0 0.1
2017-Nov-08 11:29N 70°23' E 031°07'0 0.0
2017-Nov-08 10:59N 70°23' E 031°07'0 0.0
2017-Nov-08 10:29N 70°23' E 031°07'0 0.0
2017-Nov-08 09:59N 70°23' E 031°07'0 0.0
2017-Nov-08 09:29N 70°23' E 031°07'0 0.0
2017-Nov-08 08:59N 70°23' E 031°07'0 0.0
2017-Nov-08 08:29N 70°23' E 031°07'0 0.0
2017-Nov-08 07:59N 70°23' E 031°07'0 0.0
2017-Nov-08 07:29N 70°23' E 031°07'0 0.0
2017-Nov-08 06:59N 70°23' E 031°07'0 0.0
2017-Nov-08 06:29N 70°23' E 031°07'0 0.0
2017-Nov-08 05:56N 70°23' E 031°07'0 0.0
2017-Nov-08 05:29N 70°23' E 031°07'0 0.0
2017-Nov-08 04:59N 70°23' E 031°07'0 0.0
2017-Nov-08 04:29N 70°23' E 031°07'0 0.0
2017-Nov-08 03:59N 70°23' E 031°07'0 0.0
2017-Nov-08 03:29N 70°23' E 031°07'0 0.0
2017-Nov-08 02:59N 70°23' E 031°07'0 0.0
2017-Nov-08 02:29N 70°23' E 031°07'0 0.0
2017-Nov-08 01:59N 70°23' E 031°07'0 0.0
2017-Nov-08 01:29N 70°23' E 031°07'0 0.0
2017-Nov-08 00:59N 70°23' E 031°07'0 0.0
2017-Nov-08 00:29N 70°23' E 031°07'0 0.0
2017-Nov-07 23:59N 70°23' E 031°07'0 0.0
2017-Nov-07 23:29N 70°23' E 031°07'0 0.0
2017-Nov-07 22:59N 70°23' E 031°07'0 0.0
2017-Nov-07 22:29N 70°23' E 031°07'0 0.0
2017-Nov-07 21:59N 70°23' E 031°07'0 0.0
2017-Nov-07 21:29N 70°23' E 031°07'0 0.0
2017-Nov-07 20:59N 70°23' E 031°07'0 0.0
2017-Nov-07 20:29N 70°23' E 031°07'0 0.0
2017-Nov-07 19:59N 70°23' E 031°07'0 0.0
2017-Nov-07 19:29N 70°23' E 031°07'0 0.0
2017-Nov-07 18:59N 70°23' E 031°07'0 0.0
2017-Nov-07 18:29N 70°23' E 031°07'0 0.0
2017-Nov-07 17:59N 70°23' E 031°07'0 0.0
2017-Nov-07 17:29N 70°23' E 031°07'0 0.0
2017-Nov-07 16:59N 70°23' E 031°07'0 0.0
2017-Nov-07 16:29N 70°23' E 031°07'0 0.0
2017-Nov-07 15:59N 70°23' E 031°07'0 0.0
2017-Nov-07 15:29N 70°23' E 031°07'0 0.0
2017-Nov-07 14:59N 70°23' E 031°07'0 0.0
2017-Nov-07 14:29N 70°23' E 031°07'0 0.0
2017-Nov-07 13:59N 70°23' E 031°07'0 0.0
2017-Nov-07 13:29N 70°23' E 031°07'0 0.0
2017-Nov-07 12:59N 70°23' E 031°07'0 0.0
2017-Nov-07 12:29N 70°23' E 031°07'0 0.0
2017-Nov-07 11:59N 70°23' E 031°07'0 0.0
2017-Nov-07 11:29N 70°23' E 031°07'0 0.0
2017-Nov-07 10:59N 70°23' E 031°07'0 0.0
2017-Nov-07 10:29N 70°23' E 031°07'0 0.0
2017-Nov-07 09:59N 70°23' E 031°07'0 0.0
2017-Nov-07 09:29N 70°23' E 031°07'0 0.0
2017-Nov-07 08:59N 70°23' E 031°07'0 0.0
2017-Nov-07 08:29N 70°23' E 031°07'0 0.0
2017-Nov-07 07:59N 70°23' E 031°07'0 0.0
2017-Nov-07 07:29N 70°23' E 031°07'0 0.0
2017-Nov-07 06:59N 70°23' E 031°07'0 0.0
2017-Nov-07 06:29N 70°23' E 031°07'0 0.0
2017-Nov-07 05:59N 70°23' E 031°07'0 0.0
2017-Nov-07 05:29N 70°23' E 031°07'0 0.0
2017-Nov-07 04:59N 70°23' E 031°07'0 0.0
2017-Nov-07 04:29N 70°23' E 031°07'0 0.0
2017-Nov-07 03:59N 70°23' E 031°07'0 0.0
2017-Nov-07 03:29N 70°23' E 031°07'0 0.0
2017-Nov-07 02:59N 70°23' E 031°07'0 0.0
2017-Nov-07 02:29N 70°23' E 031°07'0 0.0
2017-Nov-07 01:59N 70°23' E 031°07'0 0.0
2017-Nov-07 01:29N 70°23' E 031°07'0 0.0
2017-Nov-07 00:59N 70°23' E 031°07'0 0.0
2017-Nov-07 00:29N 70°23' E 031°07'0 0.0
2017-Nov-06 23:59N 70°23' E 031°07'0 0.0
2017-Nov-06 23:29N 70°23' E 031°07'0 0.0
2017-Nov-06 22:59N 70°23' E 031°07'0 0.0
2017-Nov-06 22:29N 70°23' E 031°07'0 0.0
2017-Nov-06 21:59N 70°23' E 031°07'0 0.0
2017-Nov-06 21:29N 70°23' E 031°07'0 0.0
2017-Nov-06 20:59N 70°23' E 031°07'0 0.0
2017-Nov-06 20:29N 70°23' E 031°07'  

Dump ship's entire track history